createdAt,value
2023-03-22T00:04:29.503Z,515.22
2023-03-22T00:09:31.819Z,535.58
2023-03-22T00:14:33.651Z,518.88
2023-03-22T00:19:36.049Z,513.38
2023-03-22T00:24:38.344Z,524.70
2023-03-22T00:29:40.207Z,512.15
2023-03-22T00:34:42.181Z,512.58
2023-03-22T00:39:44.549Z,521.20
2023-03-22T00:44:46.346Z,523.75
2023-03-22T00:49:48.200Z,508.23
2023-03-22T00:54:50.286Z,520.40
2023-03-22T00:59:53.985Z,530.38
2023-03-22T01:04:56.539Z,517.67
2023-03-22T01:09:58.802Z,513.63
2023-03-22T01:15:00.615Z,507.73
2023-03-22T01:20:02.608Z,500.90
2023-03-22T01:25:05.078Z,520.97
2023-03-22T01:30:08.206Z,509.48
2023-03-22T01:35:10.852Z,509.42
2023-03-22T01:40:15.426Z,487.83
2023-03-22T01:45:32.814Z,506.05
2023-03-22T01:50:37.538Z,496.77
2023-03-22T01:55:41.248Z,494.33
2023-03-22T02:00:59.716Z,509.27
2023-03-22T02:06:23.707Z,512.13
2023-03-22T02:11:38.579Z,494.42
2023-03-22T02:17:07.145Z,504.83
2023-03-22T02:22:39.411Z,509.73
2023-03-22T02:27:52.599Z,515.25
2023-03-22T02:33:06.767Z,523.17
2023-03-22T02:38:18.976Z,517.65
2023-03-22T02:43:39.409Z,514.13
2023-03-22T02:48:59.164Z,508.45
2023-03-22T02:54:10.071Z,517.55
2023-03-22T02:59:13.377Z,520.08
2023-03-22T03:04:24.672Z,525.40
2023-03-22T03:09:26.550Z,529.20
2023-03-22T03:14:31.220Z,524.20
2023-03-22T03:19:41.252Z,516.92
2023-03-22T03:24:57.305Z,500.95
2023-03-22T03:30:10.761Z,523.22
2023-03-22T03:35:42.067Z,520.50
2023-03-22T03:40:50.400Z,528.42
2023-03-22T03:45:54.222Z,532.05
2023-03-22T03:50:58.077Z,519.03
2023-03-22T03:56:00.310Z,529.28
2023-03-22T04:01:09.207Z,499.02
2023-03-22T04:06:39.556Z,521.42
2023-03-22T04:11:46.353Z,521.45
2023-03-22T04:16:50.483Z,519.95
2023-03-22T04:21:55.452Z,525.33
2023-03-22T04:27:04.444Z,502.83
2023-03-22T04:32:12.147Z,517.40
2023-03-22T04:37:18.198Z,506.77
2023-03-22T04:42:28.626Z,510.55
2023-03-22T04:47:40.529Z,500.50
2023-03-22T04:52:43.162Z,504.65
2023-03-22T04:57:47.002Z,510.23
2023-03-22T05:02:49.608Z,488.70
2023-03-22T05:08:14.379Z,488.80
2023-03-22T05:13:17.810Z,497.08
2023-03-22T05:18:24.636Z,502.10
2023-03-22T05:23:27.382Z,530.88
2023-03-22T05:28:31.960Z,497.40
2023-03-22T05:33:56.388Z,494.40
2023-03-22T05:39:00.765Z,504.85
2023-03-22T05:44:02.770Z,498.58
2023-03-22T05:49:04.946Z,491.35
2023-03-22T05:54:11.119Z,501.02
2023-03-22T05:59:21.617Z,502.83
2023-03-22T06:04:23.790Z,485.42
2023-03-22T06:09:30.279Z,498.87
2023-03-22T06:14:32.796Z,495.42
2023-03-22T06:19:45.437Z,471.00
2023-03-22T06:24:49.750Z,481.80
2023-03-22T06:29:58.356Z,470.77
2023-03-22T06:35:01.412Z,479.60
2023-03-22T06:40:04.372Z,494.58
2023-03-22T06:45:08.449Z,491.65
2023-03-22T06:50:14.809Z,497.60
2023-03-22T06:55:36.669Z,496.42
2023-03-22T07:00:57.285Z,504.58
2023-03-22T07:06:02.271Z,522.05
2023-03-22T07:11:07.163Z,534.55
2023-03-22T07:16:09.951Z,538.60
2023-03-22T07:21:35.100Z,532.10
2023-03-22T07:26:41.729Z,548.50
2023-03-22T07:31:46.608Z,552.65
2023-03-22T07:36:57.556Z,559.13
2023-03-22T07:42:00.708Z,544.63
2023-03-22T07:47:41.364Z,551.42
2023-03-22T07:52:52.371Z,564.50
2023-03-22T07:57:54.360Z,561.45
2023-03-22T08:02:57.640Z,563.75
2023-03-22T08:08:28.619Z,557.40
2023-03-22T08:13:31.243Z,591.33
2023-03-22T08:18:33.361Z,577.63
2023-03-22T08:23:42.121Z,593.08
2023-03-22T08:28:50.476Z,618.35
2023-03-22T08:33:52.643Z,603.83
2023-03-22T08:38:55.070Z,636.22
2023-03-22T08:44:07.118Z,634.25
2023-03-22T08:49:10.582Z,624.42
2023-03-22T08:54:27.148Z,622.35
2023-03-22T08:59:48.984Z,633.63
2023-03-22T09:04:59.241Z,646.22
2023-03-22T09:10:01.999Z,644.40
2023-03-22T09:15:06.325Z,641.67
2023-03-22T09:20:13.104Z,665.90
2023-03-22T09:25:18.942Z,647.53
2023-03-22T09:30:24.209Z,652.63
2023-03-22T09:35:26.584Z,666.15
2023-03-22T09:40:35.177Z,628.95
2023-03-22T09:45:44.362Z,655.17
2023-03-22T09:50:52.866Z,633.28
2023-03-22T09:56:17.913Z,648.17
2023-03-22T10:01:35.744Z,642.22
2023-03-22T10:06:37.731Z,645.25
2023-03-22T10:11:46.461Z,651.35
2023-03-22T10:16:51.225Z,654.15
2023-03-22T10:21:56.290Z,638.58
2023-03-22T10:26:58.452Z,644.90
2023-03-22T10:32:13.928Z,621.97
2023-03-22T10:37:20.601Z,621.38
2023-03-22T10:42:27.684Z,629.55
2023-03-22T10:47:35.568Z,615.13
2023-03-22T10:52:52.565Z,611.20
2023-03-22T10:58:17.512Z,617.73
2023-03-22T11:03:28.364Z,619.92
2023-03-22T11:08:58.177Z,616.28
2023-03-22T11:14:15.608Z,617.83
2023-03-22T11:19:42.686Z,594.00
2023-03-22T11:24:46.935Z,598.93
2023-03-22T11:29:51.497Z,604.97
2023-03-22T11:35:11.804Z,599.30
2023-03-22T11:40:21.464Z,609.38
2023-03-22T11:45:30.904Z,616.03
2023-03-22T11:50:36.427Z,618.75
2023-03-22T11:55:57.220Z,604.45
2023-03-22T12:01:02.183Z,626.80
2023-03-22T12:06:08.178Z,604.30
2023-03-22T12:11:43.827Z,603.05
2023-03-22T12:16:57.576Z,592.40
2023-03-22T12:21:59.662Z,611.22
2023-03-22T12:27:16.783Z,591.40
2023-03-22T12:32:26.294Z,594.20
2023-03-22T12:37:33.437Z,599.70
2023-03-22T12:43:04.045Z,596.95
2023-03-22T12:48:20.956Z,610.70
2023-03-22T12:53:28.025Z,589.70
2023-03-22T12:58:29.902Z,582.07
2023-03-22T13:03:59.476Z,595.10
2023-03-22T13:09:08.861Z,604.00
2023-03-22T13:14:48.251Z,599.83
2023-03-22T13:20:19.965Z,598.95
2023-03-22T13:25:26.266Z,601.80
2023-03-22T13:30:50.083Z,620.80
2023-03-22T13:36:04.791Z,615.90
2023-03-22T13:41:14.252Z,627.08
2023-03-22T13:46:22.207Z,630.50
2023-03-22T13:51:26.917Z,608.45
2023-03-22T13:56:33.937Z,612.80
2023-03-22T14:01:39.554Z,617.03
2023-03-22T14:06:52.304Z,609.60
2023-03-22T14:12:01.367Z,630.75
2023-03-22T14:17:13.052Z,627.28
